sensor_id;sensor_type;location;lat;lon;timestamp;P1;durP1;ratioP1;P2;durP2;ratioP2
45296;SDS011;31040;51.622;10.420;2023-02-28T00:01:28;0.70;;;0.63;;
45296;SDS011;31040;51.622;10.420;2023-02-28T00:03:56;0.77;;;0.68;;
45296;SDS011;31040;51.622;10.420;2023-02-28T00:06:23;1.33;;;0.80;;
45296;SDS011;31040;51.622;10.420;2023-02-28T00:08:51;0.88;;;0.55;;
45296;SDS011;31040;51.622;10.420;2023-02-28T00:11:18;1.30;;;0.70;;
45296;SDS011;31040;51.622;10.420;2023-02-28T00:13:46;2.33;;;1.00;;
45296;SDS011;31040;51.622;10.420;2023-02-28T00:16:15;0.95;;;0.80;;
45296;SDS011;31040;51.622;10.420;2023-02-28T00:18:42;2.47;;;1.17;;
45296;SDS011;31040;51.622;10.420;2023-02-28T00:21:10;0.70;;;0.70;;
45296;SDS011;31040;51.622;10.420;2023-02-28T00:23:37;1.45;;;0.95;;
45296;SDS011;31040;51.622;10.420;2023-02-28T00:26:04;1.98;;;1.10;;
45296;SDS011;31040;51.622;10.420;2023-02-28T00:28:32;3.13;;;1.98;;
45296;SDS011;31040;51.622;10.420;2023-02-28T00:30:59;6.88;;;3.78;;
45296;SDS011;31040;51.622;10.420;2023-02-28T00:33:27;7.03;;;2.95;;
45296;SDS011;31040;51.622;10.420;2023-02-28T00:36:01;5.13;;;3.13;;
45296;SDS011;31040;51.622;10.420;2023-02-28T00:40:57;4.60;;;2.67;;
45296;SDS011;31040;51.622;10.420;2023-02-28T00:43:25;5.28;;;3.10;;
45296;SDS011;31040;51.622;10.420;2023-02-28T00:45:52;4.85;;;2.63;;
45296;SDS011;31040;51.622;10.420;2023-02-28T00:48:19;2.67;;;1.80;;
45296;SDS011;31040;51.622;10.420;2023-02-28T00:50:50;1.42;;;1.23;;
45296;SDS011;31040;51.622;10.420;2023-02-28T00:53:17;2.72;;;1.67;;
45296;SDS011;31040;51.622;10.420;2023-02-28T00:55:44;2.28;;;1.27;;
45296;SDS011;31040;51.622;10.420;2023-02-28T00:58:11;1.73;;;1.20;;
45296;SDS011;31040;51.622;10.420;2023-02-28T01:00:39;1.13;;;0.90;;
45296;SDS011;31040;51.622;10.420;2023-02-28T01:03:06;2.65;;;1.23;;
45296;SDS011;31040;51.622;10.420;2023-02-28T01:05:33;1.92;;;1.35;;
45296;SDS011;31040;51.622;10.420;2023-02-28T01:08:00;3.30;;;1.15;;
45296;SDS011;31040;51.622;10.420;2023-02-28T01:10:28;1.10;;;1.00;;
45296;SDS011;31040;51.622;10.420;2023-02-28T01:12:57;2.05;;;1.23;;
45296;SDS011;31040;51.622;10.420;2023-02-28T01:15:25;1.65;;;1.10;;
45296;SDS011;31040;51.622;10.420;2023-02-28T01:17:52;2.38;;;1.92;;
45296;SDS011;31040;51.622;10.420;2023-02-28T01:20:19;3.60;;;1.30;;
45296;SDS011;31040;51.622;10.420;2023-02-28T01:22:46;5.30;;;1.15;;
45296;SDS011;31040;51.622;10.420;2023-02-28T01:25:14;2.88;;;1.00;;
45296;SDS011;31040;51.622;10.420;2023-02-28T01:27:41;1.20;;;0.80;;
45296;SDS011;31040;51.622;10.420;2023-02-28T01:30:09;1.15;;;0.70;;
45296;SDS011;31040;51.622;10.420;2023-02-28T01:32:36;0.63;;;0.60;;
45296;SDS011;31040;51.622;10.420;2023-02-28T01:35:04;1.52;;;1.23;;
45296;SDS011;31040;51.622;10.420;2023-02-28T01:37:31;0.63;;;0.60;;
45296;SDS011;31040;51.622;10.420;2023-02-28T01:39:58;0.75;;;0.70;;
45296;SDS011;31040;51.622;10.420;2023-02-28T01:42:25;1.92;;;0.73;;
45296;SDS011;31040;51.622;10.420;2023-02-28T01:47:31;0.75;;;0.70;;
45296;SDS011;31040;51.622;10.420;2023-02-28T01:49:59;0.60;;;0.60;;
45296;SDS011;31040;51.622;10.420;2023-02-28T01:52:27;1.60;;;1.50;;
45296;SDS011;31040;51.622;10.420;2023-02-28T01:54:55;1.27;;;1.02;;
45296;SDS011;31040;51.622;10.420;2023-02-28T01:57:24;1.25;;;0.63;;
45296;SDS011;31040;51.622;10.420;2023-02-28T02:02:25;1.48;;;1.00;;
45296;SDS011;31040;51.622;10.420;2023-02-28T02:07:23;1.63;;;0.55;;
45296;SDS011;31040;51.622;10.420;2023-02-28T02:13:05;1.00;;;0.90;;
45296;SDS011;31040;51.622;10.420;2023-02-28T02:15:40;1.23;;;0.93;;
45296;SDS011;31040;51.622;10.420;2023-02-28T02:20:47;1.08;;;0.93;;
45296;SDS011;31040;51.622;10.420;2023-02-28T02:36:36;2.25;;;0.88;;
45296;SDS011;31040;51.622;10.420;2023-02-28T02:41:35;2.05;;;1.00;;
45296;SDS011;31040;51.622;10.420;2023-02-28T02:44:10;1.25;;;0.80;;
45296;SDS011;31040;51.622;10.420;2023-02-28T02:49:08;2.30;;;1.00;;
45296;SDS011;31040;51.622;10.420;2023-02-28T02:51:36;1.30;;;0.80;;
45296;SDS011;31040;51.622;10.420;2023-02-28T02:54:08;1.92;;;0.70;;
45296;SDS011;31040;51.622;10.420;2023-02-28T02:56:38;1.80;;;0.57;;
45296;SDS011;31040;51.622;10.420;2023-02-28T02:59:09;1.77;;;0.80;;
45296;SDS011;31040;51.622;10.420;2023-02-28T03:01:37;1.00;;;0.80;;
45296;SDS011;31040;51.622;10.420;2023-02-28T03:04:07;1.15;;;0.80;;
45296;SDS011;31040;51.622;10.420;2023-02-28T03:06:35;1.27;;;0.70;;
45296;SDS011;31040;51.622;10.420;2023-02-28T03:09:02;1.90;;;0.88;;
45296;SDS011;31040;51.622;10.420;2023-02-28T03:11:30;1.05;;;0.95;;
45296;SDS011;31040;51.622;10.420;2023-02-28T03:21:27;2.08;;;0.95;;
45296;SDS011;31040;51.622;10.420;2023-02-28T03:24:04;1.50;;;1.08;;
45296;SDS011;31040;51.622;10.420;2023-02-28T03:26:34;1.63;;;0.98;;
45296;SDS011;31040;51.622;10.420;2023-02-28T03:31:49;1.50;;;0.70;;
45296;SDS011;31040;51.622;10.420;2023-02-28T03:34:40;1.13;;;1.02;;
45296;SDS011;31040;51.622;10.420;2023-02-28T03:37:07;1.00;;;0.70;;
45296;SDS011;31040;51.622;10.420;2023-02-28T03:39:37;2.10;;;1.00;;
45296;SDS011;31040;51.622;10.420;2023-02-28T03:42:06;1.15;;;0.77;;
45296;SDS011;31040;51.622;10.420;2023-02-28T03:44:39;1.75;;;0.90;;
45296;SDS011;31040;51.622;10.420;2023-02-28T03:47:08;1.60;;;0.98;;
45296;SDS011;31040;51.622;10.420;2023-02-28T03:49:42;3.17;;;1.02;;
45296;SDS011;31040;51.622;10.420;2023-02-28T03:52:14;1.80;;;0.82;;
45296;SDS011;31040;51.622;10.420;2023-02-28T03:54:43;2.60;;;1.45;;
45296;SDS011;31040;51.622;10.420;2023-02-28T03:57:17;1.40;;;1.00;;
45296;SDS011;31040;51.622;10.420;2023-02-28T03:59:47;1.02;;;0.80;;
45296;SDS011;31040;51.622;10.420;2023-02-28T04:02:17;4.80;;;1.20;;
45296;SDS011;31040;51.622;10.420;2023-02-28T04:04:44;2.75;;;1.10;;
45296;SDS011;31040;51.622;10.420;2023-02-28T04:07:15;2.25;;;1.50;;
45296;SDS011;31040;51.622;10.420;2023-02-28T04:09:42;2.70;;;1.15;;
45296;SDS011;31040;51.622;10.420;2023-02-28T04:12:10;4.10;;;1.95;;
45296;SDS011;31040;51.622;10.420;2023-02-28T04:14:37;1.17;;;1.00;;
45296;SDS011;31040;51.622;10.420;2023-02-28T04:17:04;1.30;;;1.00;;
45296;SDS011;31040;51.622;10.420;2023-02-28T04:19:32;1.77;;;0.90;;
45296;SDS011;31040;51.622;10.420;2023-02-28T04:21:59;1.80;;;1.20;;
45296;SDS011;31040;51.622;10.420;2023-02-28T04:24:27;2.65;;;1.25;;
45296;SDS011;31040;51.622;10.420;2023-02-28T04:26:55;2.63;;;1.50;;
45296;SDS011;31040;51.622;10.420;2023-02-28T04:31:50;2.45;;;1.30;;
45296;SDS011;31040;51.622;10.420;2023-02-28T04:34:20;1.85;;;1.02;;
45296;SDS011;31040;51.622;10.420;2023-02-28T04:36:47;1.95;;;1.30;;
45296;SDS011;31040;51.622;10.420;2023-02-28T04:39:36;1.30;;;1.00;;
45296;SDS011;31040;51.622;10.420;2023-02-28T04:42:04;1.85;;;1.00;;
45296;SDS011;31040;51.622;10.420;2023-02-28T04:44:31;1.52;;;0.98;;
45296;SDS011;31040;51.622;10.420;2023-02-28T04:46:59;1.88;;;1.10;;
45296;SDS011;31040;51.622;10.420;2023-02-28T04:49:26;1.80;;;1.50;;
45296;SDS011;31040;51.622;10.420;2023-02-28T04:51:53;1.30;;;0.95;;
45296;SDS011;31040;51.622;10.420;2023-02-28T04:54:21;1.73;;;1.63;;
45296;SDS011;31040;51.622;10.420;2023-02-28T04:56:49;1.40;;;0.93;;
45296;SDS011;31040;51.622;10.420;2023-02-28T04:59:16;1.95;;;1.23;;
45296;SDS011;31040;51.622;10.420;2023-02-28T05:01:47;1.13;;;0.95;;
45296;SDS011;31040;51.622;10.420;2023-02-28T05:04:15;1.40;;;1.10;;
45296;SDS011;31040;51.622;10.420;2023-02-28T05:06:43;1.42;;;1.10;;
45296;SDS011;31040;51.622;10.420;2023-02-28T05:09:11;1.70;;;1.20;;
45296;SDS011;31040;51.622;10.420;2023-02-28T05:11:38;1.45;;;1.20;;
45296;SDS011;31040;51.622;10.420;2023-02-28T05:14:14;1.83;;;1.30;;
45296;SDS011;31040;51.622;10.420;2023-02-28T05:16:42;1.65;;;1.20;;
45296;SDS011;31040;51.622;10.420;2023-02-28T05:19:09;1.52;;;1.25;;
45296;SDS011;31040;51.622;10.420;2023-02-28T05:21:41;2.08;;;1.85;;
45296;SDS011;31040;51.622;10.420;2023-02-28T05:24:09;1.42;;;1.13;;
45296;SDS011;31040;51.622;10.420;2023-02-28T05:26:38;3.85;;;1.38;;
45296;SDS011;31040;51.622;10.420;2023-02-28T05:29:05;5.13;;;1.42;;
45296;SDS011;31040;51.622;10.420;2023-02-28T05:31:33;1.58;;;0.98;;
45296;SDS011;31040;51.622;10.420;2023-02-28T05:34:00;1.65;;;1.40;;
45296;SDS011;31040;51.622;10.420;2023-02-28T05:36:30;2.03;;;1.50;;
45296;SDS011;31040;51.622;10.420;2023-02-28T05:38:58;5.82;;;1.40;;
45296;SDS011;31040;51.622;10.420;2023-02-28T05:41:25;1.65;;;1.17;;
45296;SDS011;31040;51.622;10.420;2023-02-28T05:43:53;1.63;;;1.10;;
45296;SDS011;31040;51.622;10.420;2023-02-28T05:46:21;2.53;;;1.23;;
45296;SDS011;31040;51.622;10.420;2023-02-28T05:48:48;3.05;;;1.65;;
45296;SDS011;31040;51.622;10.420;2023-02-28T05:51:16;2.65;;;1.20;;
45296;SDS011;31040;51.622;10.420;2023-02-28T05:53:44;1.25;;;1.10;;
45296;SDS011;31040;51.622;10.420;2023-02-28T05:56:11;3.60;;;1.48;;
45296;SDS011;31040;51.622;10.420;2023-02-28T05:58:38;2.60;;;1.33;;
45296;SDS011;31040;51.622;10.420;2023-02-28T06:03:59;2.45;;;1.40;;
45296;SDS011;31040;51.622;10.420;2023-02-28T06:06:27;2.63;;;1.40;;
45296;SDS011;31040;51.622;10.420;2023-02-28T06:08:56;2.10;;;1.42;;
45296;SDS011;31040;51.622;10.420;2023-02-28T06:11:23;1.98;;;1.58;;
45296;SDS011;31040;51.622;10.420;2023-02-28T06:13:54;2.08;;;1.45;;
45296;SDS011;31040;51.622;10.420;2023-02-28T06:16:22;2.75;;;1.52;;
45296;SDS011;31040;51.622;10.420;2023-02-28T06:18:50;2.33;;;1.98;;
45296;SDS011;31040;51.622;10.420;2023-02-28T06:21:18;1.35;;;1.25;;
45296;SDS011;31040;51.622;10.420;2023-02-28T06:23:46;3.45;;;1.92;;
45296;SDS011;31040;51.622;10.420;2023-02-28T06:26:13;3.15;;;1.73;;
45296;SDS011;31040;51.622;10.420;2023-02-28T06:28:40;2.03;;;1.60;;
45296;SDS011;31040;51.622;10.420;2023-02-28T06:31:08;3.00;;;1.92;;
45296;SDS011;31040;51.622;10.420;2023-02-28T06:33:36;6.43;;;2.17;;
45296;SDS011;31040;51.622;10.420;2023-02-28T06:36:04;3.22;;;2.05;;
45296;SDS011;31040;51.622;10.420;2023-02-28T06:38:32;3.03;;;2.53;;
45296;SDS011;31040;51.622;10.420;2023-02-28T06:41:00;4.65;;;2.25;;
45296;SDS011;31040;51.622;10.420;2023-02-28T06:43:29;8.77;;;3.40;;
45296;SDS011;31040;51.622;10.420;2023-02-28T06:45:57;3.58;;;2.40;;
45296;SDS011;31040;51.622;10.420;2023-02-28T06:48:25;3.50;;;2.58;;
45296;SDS011;31040;51.622;10.420;2023-02-28T06:51:09;3.92;;;2.60;;
45296;SDS011;31040;51.622;10.420;2023-02-28T06:53:37;4.03;;;2.85;;
45296;SDS011;31040;51.622;10.420;2023-02-28T06:56:05;3.05;;;2.50;;
45296;SDS011;31040;51.622;10.420;2023-02-28T06:58:33;3.33;;;2.40;;
45296;SDS011;31040;51.622;10.420;2023-02-28T07:01:00;4.43;;;2.78;;
45296;SDS011;31040;51.622;10.420;2023-02-28T07:03:28;3.08;;;2.55;;
45296;SDS011;31040;51.622;10.420;2023-02-28T07:05:55;3.25;;;2.45;;
45296;SDS011;31040;51.622;10.420;2023-02-28T07:08:23;4.50;;;2.67;;
45296;SDS011;31040;51.622;10.420;2023-02-28T07:10:53;4.82;;;2.78;;
45296;SDS011;31040;51.622;10.420;2023-02-28T07:13:21;3.83;;;3.15;;
45296;SDS011;31040;51.622;10.420;2023-02-28T07:16:02;3.50;;;2.75;;
45296;SDS011;31040;51.622;10.420;2023-02-28T07:18:30;5.50;;;3.03;;
45296;SDS011;31040;51.622;10.420;2023-02-28T07:20:57;3.45;;;3.15;;
45296;SDS011;31040;51.622;10.420;2023-02-28T07:23:25;3.00;;;2.50;;
45296;SDS011;31040;51.622;10.420;2023-02-28T07:25:52;5.18;;;2.70;;
45296;SDS011;31040;51.622;10.420;2023-02-28T07:28:19;3.55;;;2.80;;
45296;SDS011;31040;51.622;10.420;2023-02-28T07:30:47;4.97;;;3.28;;
45296;SDS011;31040;51.622;10.420;2023-02-28T07:33:14;3.08;;;2.67;;
45296;SDS011;31040;51.622;10.420;2023-02-28T07:35:41;4.68;;;3.20;;
45296;SDS011;31040;51.622;10.420;2023-02-28T07:38:09;3.25;;;2.50;;
45296;SDS011;31040;51.622;10.420;2023-02-28T07:40:36;5.70;;;3.08;;
45296;SDS011;31040;51.622;10.420;2023-02-28T07:43:04;3.63;;;2.85;;
45296;SDS011;31040;51.622;10.420;2023-02-28T07:45:31;4.88;;;2.88;;
45296;SDS011;31040;51.622;10.420;2023-02-28T07:48:00;2.97;;;2.58;;
45296;SDS011;31040;51.622;10.420;2023-02-28T07:50:28;4.93;;;3.22;;
45296;SDS011;31040;51.622;10.420;2023-02-28T07:53:00;4.28;;;2.72;;
45296;SDS011;31040;51.622;10.420;2023-02-28T07:55:27;3.55;;;3.08;;
45296;SDS011;31040;51.622;10.420;2023-02-28T07:57:54;4.63;;;3.33;;
45296;SDS011;31040;51.622;10.420;2023-02-28T08:00:23;4.10;;;3.15;;
45296;SDS011;31040;51.622;10.420;2023-02-28T08:02:50;4.35;;;2.83;;
45296;SDS011;31040;51.622;10.420;2023-02-28T08:05:18;4.88;;;2.95;;
45296;SDS011;31040;51.622;10.420;2023-02-28T08:07:48;4.55;;;2.85;;
45296;SDS011;31040;51.622;10.420;2023-02-28T08:10:16;3.58;;;2.92;;
45296;SDS011;31040;51.622;10.420;2023-02-28T08:12:43;3.75;;;3.30;;
45296;SDS011;31040;51.622;10.420;2023-02-28T08:15:10;2.88;;;2.58;;
45296;SDS011;31040;51.622;10.420;2023-02-28T08:17:38;4.03;;;2.80;;
45296;SDS011;31040;51.622;10.420;2023-02-28T08:20:05;3.85;;;2.75;;
45296;SDS011;31040;51.622;10.420;2023-02-28T08:22:33;3.38;;;2.83;;
45296;SDS011;31040;51.622;10.420;2023-02-28T08:25:00;2.88;;;2.10;;
45296;SDS011;31040;51.622;10.420;2023-02-28T08:27:27;4.70;;;3.40;;
45296;SDS011;31040;51.622;10.420;2023-02-28T08:29:54;5.95;;;3.38;;
45296;SDS011;31040;51.622;10.420;2023-02-28T08:32:22;3.75;;;1.88;;
45296;SDS011;31040;51.622;10.420;2023-02-28T08:34:55;4.55;;;3.00;;
45296;SDS011;31040;51.622;10.420;2023-02-28T08:37:23;3.17;;;2.35;;
45296;SDS011;31040;51.622;10.420;2023-02-28T08:39:50;4.90;;;2.90;;
45296;SDS011;31040;51.622;10.420;2023-02-28T08:42:21;5.40;;;3.03;;
45296;SDS011;31040;51.622;10.420;2023-02-28T08:44:48;2.85;;;1.65;;
45296;SDS011;31040;51.622;10.420;2023-02-28T08:47:15;2.60;;;2.40;;
45296;SDS011;31040;51.622;10.420;2023-02-28T08:49:43;2.42;;;2.22;;
45296;SDS011;31040;51.622;10.420;2023-02-28T08:52:10;2.67;;;2.08;;
45296;SDS011;31040;51.622;10.420;2023-02-28T08:54:37;2.20;;;1.98;;
45296;SDS011;31040;51.622;10.420;2023-02-28T08:57:05;2.28;;;2.00;;
45296;SDS011;31040;51.622;10.420;2023-02-28T08:59:32;3.60;;;2.55;;
45296;SDS011;31040;51.622;10.420;2023-02-28T09:01:59;4.22;;;2.20;;
45296;SDS011;31040;51.622;10.420;2023-02-28T09:04:27;2.17;;;1.58;;
45296;SDS011;31040;51.622;10.420;2023-02-28T09:06:56;3.08;;;1.90;;
45296;SDS011;31040;51.622;10.420;2023-02-28T09:09:24;2.25;;;1.90;;
45296;SDS011;31040;51.622;10.420;2023-02-28T09:11:51;3.03;;;2.17;;
45296;SDS011;31040;51.622;10.420;2023-02-28T09:14:18;2.17;;;1.92;;
45296;SDS011;31040;51.622;10.420;2023-02-28T09:16:46;3.03;;;2.22;;
45296;SDS011;31040;51.622;10.420;2023-02-28T09:19:13;2.78;;;1.88;;
45296;SDS011;31040;51.622;10.420;2023-02-28T09:21:40;2.88;;;2.33;;
45296;SDS011;31040;51.622;10.420;2023-02-28T09:24:08;2.20;;;1.83;;
45296;SDS011;31040;51.622;10.420;2023-02-28T09:26:37;2.13;;;1.63;;
45296;SDS011;31040;51.622;10.420;2023-02-28T09:29:16;2.20;;;1.50;;
45296;SDS011;31040;51.622;10.420;2023-02-28T09:31:43;2.13;;;1.90;;
45296;SDS011;31040;51.622;10.420;2023-02-28T09:34:11;1.60;;;1.30;;
45296;SDS011;31040;51.622;10.420;2023-02-28T09:36:39;2.15;;;1.95;;
45296;SDS011;31040;51.622;10.420;2023-02-28T09:39:11;1.60;;;1.50;;
45296;SDS011;31040;51.622;10.420;2023-02-28T09:41:41;2.00;;;1.50;;
45296;SDS011;31040;51.622;10.420;2023-02-28T09:44:22;1.80;;;1.70;;
45296;SDS011;31040;51.622;10.420;2023-02-28T09:46:53;2.50;;;1.60;;
45296;SDS011;31040;51.622;10.420;2023-02-28T09:49:27;3.33;;;1.63;;
45296;SDS011;31040;51.622;10.420;2023-02-28T09:52:03;2.90;;;2.03;;
45296;SDS011;31040;51.622;10.420;2023-02-28T10:04:54;2.10;;;1.33;;
45296;SDS011;31040;51.622;10.420;2023-02-28T10:10:15;1.88;;;1.77;;
45296;SDS011;31040;51.622;10.420;2023-02-28T10:12:45;2.58;;;1.55;;
45296;SDS011;31040;51.622;10.420;2023-02-28T10:15:14;3.45;;;1.90;;
45296;SDS011;31040;51.622;10.420;2023-02-28T10:17:42;2.08;;;1.45;;
45296;SDS011;31040;51.622;10.420;2023-02-28T10:20:21;3.60;;;1.73;;
45296;SDS011;31040;51.622;10.420;2023-02-28T10:25:34;2.65;;;1.77;;
45296;SDS011;31040;51.622;10.420;2023-02-28T10:28:10;1.95;;;1.40;;
45296;SDS011;31040;51.622;10.420;2023-02-28T10:30:42;1.55;;;1.45;;
45296;SDS011;31040;51.622;10.420;2023-02-28T10:33:17;2.67;;;1.92;;
45296;SDS011;31040;51.622;10.420;2023-02-28T10:35:46;3.58;;;1.92;;
45296;SDS011;31040;51.622;10.420;2023-02-28T10:38:33;2.25;;;1.60;;
45296;SDS011;31040;51.622;10.420;2023-02-28T10:41:07;2.63;;;1.98;;
45296;SDS011;31040;51.622;10.420;2023-02-28T10:43:35;1.80;;;1.63;;
45296;SDS011;31040;51.622;10.420;2023-02-28T10:48:32;3.53;;;2.00;;
45296;SDS011;31040;51.622;10.420;2023-02-28T10:51:00;3.33;;;1.92;;
45296;SDS011;31040;51.622;10.420;2023-02-28T10:53:30;3.83;;;2.30;;
45296;SDS011;31040;51.622;10.420;2023-02-28T11:01:20;2.38;;;1.90;;
45296;SDS011;31040;51.622;10.420;2023-02-28T11:03:48;3.28;;;2.05;;
45296;SDS011;31040;51.622;10.420;2023-02-28T11:06:20;3.75;;;2.30;;
45296;SDS011;31040;51.622;10.420;2023-02-28T11:08:52;3.97;;;1.60;;
45296;SDS011;31040;51.622;10.420;2023-02-28T11:11:21;2.88;;;1.90;;
45296;SDS011;31040;51.622;10.420;2023-02-28T11:13:51;2.65;;;2.00;;
45296;SDS011;31040;51.622;10.420;2023-02-28T11:16:19;3.53;;;1.95;;
45296;SDS011;31040;51.622;10.420;2023-02-28T11:18:48;3.17;;;2.40;;
45296;SDS011;31040;51.622;10.420;2023-02-28T11:21:17;2.13;;;1.83;;
45296;SDS011;31040;51.622;10.420;2023-02-28T11:23:45;2.60;;;1.70;;
45296;SDS011;31040;51.622;10.420;2023-02-28T11:26:13;3.30;;;1.90;;
45296;SDS011;31040;51.622;10.420;2023-02-28T11:28:41;3.40;;;2.25;;
45296;SDS011;31040;51.622;10.420;2023-02-28T11:36:12;2.60;;;2.40;;
45296;SDS011;31040;51.622;10.420;2023-02-28T11:38:40;2.60;;;2.03;;
45296;SDS011;31040;51.622;10.420;2023-02-28T11:43:38;3.40;;;2.08;;
45296;SDS011;31040;51.622;10.420;2023-02-28T11:49:02;4.25;;;3.15;;
45296;SDS011;31040;51.622;10.420;2023-02-28T11:56:41;4.15;;;2.10;;
45296;SDS011;31040;51.622;10.420;2023-02-28T12:04:25;3.20;;;2.30;;
45296;SDS011;31040;51.622;10.420;2023-02-28T12:06:55;3.08;;;1.80;;
45296;SDS011;31040;51.622;10.420;2023-02-28T12:09:44;5.18;;;2.20;;
45296;SDS011;31040;51.622;10.420;2023-02-28T12:28:14;2.97;;;2.38;;
45296;SDS011;31040;51.622;10.420;2023-02-28T12:33:22;3.75;;;2.63;;
45296;SDS011;31040;51.622;10.420;2023-02-28T12:35:56;2.63;;;2.40;;
45296;SDS011;31040;51.622;10.420;2023-02-28T12:41:11;3.25;;;2.20;;
45296;SDS011;31040;51.622;10.420;2023-02-28T12:43:44;3.50;;;2.85;;
45296;SDS011;31040;51.622;10.420;2023-02-28T12:46:14;3.75;;;2.85;;
45296;SDS011;31040;51.622;10.420;2023-02-28T12:48:53;3.90;;;3.25;;
45296;SDS011;31040;51.622;10.420;2023-02-28T12:51:23;3.67;;;3.03;;
45296;SDS011;31040;51.622;10.420;2023-02-28T12:54:00;3.50;;;2.75;;
45296;SDS011;31040;51.622;10.420;2023-02-28T12:59:02;5.10;;;3.20;;
45296;SDS011;31040;51.622;10.420;2023-02-28T13:09:29;4.13;;;3.15;;
45296;SDS011;31040;51.622;10.420;2023-02-28T13:11:56;3.38;;;2.42;;
45296;SDS011;31040;51.622;10.420;2023-02-28T13:19:30;5.28;;;3.58;;
45296;SDS011;31040;51.622;10.420;2023-02-28T13:21:58;5.07;;;3.30;;
45296;SDS011;31040;51.622;10.420;2023-02-28T13:29:31;5.70;;;3.75;;
45296;SDS011;31040;51.622;10.420;2023-02-28T13:42:23;7.18;;;4.03;;
45296;SDS011;31040;51.622;10.420;2023-02-28T13:52:55;5.60;;;4.07;;
45296;SDS011;31040;51.622;10.420;2023-02-28T13:57:56;5.53;;;4.05;;
45296;SDS011;31040;51.622;10.420;2023-02-28T14:11:52;3.60;;;3.30;;
45296;SDS011;31040;51.622;10.420;2023-02-28T14:16:59;5.70;;;3.90;;
45296;SDS011;31040;51.622;10.420;2023-02-28T14:19:27;5.40;;;3.55;;
45296;SDS011;31040;51.622;10.420;2023-02-28T14:27:15;5.88;;;3.63;;
45296;SDS011;31040;51.622;10.420;2023-02-28T14:29:56;4.72;;;4.00;;
45296;SDS011;31040;51.622;10.420;2023-02-28T14:37:41;5.50;;;4.30;;
45296;SDS011;31040;51.622;10.420;2023-02-28T14:40:17;6.30;;;4.07;;
45296;SDS011;31040;51.622;10.420;2023-02-28T14:42:48;9.30;;;4.88;;
45296;SDS011;31040;51.622;10.420;2023-02-28T14:45:22;6.15;;;4.28;;
45296;SDS011;31040;51.622;10.420;2023-02-28T14:47:50;7.10;;;4.53;;
45296;SDS011;31040;51.622;10.420;2023-02-28T14:50:19;4.63;;;3.90;;
45296;SDS011;31040;51.622;10.420;2023-02-28T14:52:46;5.00;;;4.50;;
45296;SDS011;31040;51.622;10.420;2023-02-28T14:55:16;5.43;;;3.45;;
45296;SDS011;31040;51.622;10.420;2023-02-28T14:57:51;7.35;;;4.85;;
45296;SDS011;31040;51.622;10.420;2023-02-28T15:00:23;5.22;;;4.72;;
45296;SDS011;31040;51.622;10.420;2023-02-28T15:02:51;5.75;;;4.25;;
45296;SDS011;31040;51.622;10.420;2023-02-28T15:07:47;6.50;;;5.10;;
45296;SDS011;31040;51.622;10.420;2023-02-28T15:10:19;5.72;;;3.95;;
45296;SDS011;31040;51.622;10.420;2023-02-28T15:12:53;8.20;;;5.25;;
45296;SDS011;31040;51.622;10.420;2023-02-28T15:16:11;6.38;;;5.03;;
45296;SDS011;31040;51.622;10.420;2023-02-28T15:18:31;5.72;;;4.47;;
45296;SDS011;31040;51.622;10.420;2023-02-28T15:21:04;6.55;;;5.00;;
45296;SDS011;31040;51.622;10.420;2023-02-28T15:23:33;4.72;;;4.22;;
45296;SDS011;31040;51.622;10.420;2023-02-28T15:26:02;5.75;;;4.82;;
45296;SDS011;31040;51.622;10.420;2023-02-28T15:28:29;6.70;;;4.80;;
45296;SDS011;31040;51.622;10.420;2023-02-28T15:31:01;7.25;;;5.10;;
45296;SDS011;31040;51.622;10.420;2023-02-28T15:33:30;9.05;;;5.03;;
45296;SDS011;31040;51.622;10.420;2023-02-28T15:36:05;6.72;;;5.60;;
45296;SDS011;31040;51.622;10.420;2023-02-28T15:38:33;8.35;;;4.60;;
45296;SDS011;31040;51.622;10.420;2023-02-28T15:41:01;9.10;;;7.20;;
45296;SDS011;31040;51.622;10.420;2023-02-28T15:43:35;11.82;;;10.20;;
45296;SDS011;31040;51.622;10.420;2023-02-28T15:48:31;7.10;;;4.72;;
45296;SDS011;31040;51.622;10.420;2023-02-28T15:54:00;7.97;;;4.82;;
45296;SDS011;31040;51.622;10.420;2023-02-28T15:56:28;6.55;;;5.03;;
45296;SDS011;31040;51.622;10.420;2023-02-28T15:58:57;8.23;;;5.78;;
45296;SDS011;31040;51.622;10.420;2023-02-28T16:01:25;7.18;;;5.78;;
45296;SDS011;31040;51.622;10.420;2023-02-28T16:04:03;8.02;;;5.88;;
45296;SDS011;31040;51.622;10.420;2023-02-28T16:06:32;10.00;;;5.03;;
45296;SDS011;31040;51.622;10.420;2023-02-28T16:09:04;7.30;;;4.97;;
45296;SDS011;31040;51.622;10.420;2023-02-28T16:11:38;7.50;;;5.82;;
45296;SDS011;31040;51.622;10.420;2023-02-28T16:14:41;7.18;;;5.85;;
45296;SDS011;31040;51.622;10.420;2023-02-28T16:17:03;6.53;;;5.03;;
45296;SDS011;31040;51.622;10.420;2023-02-28T16:19:31;7.97;;;5.20;;
45296;SDS011;31040;51.622;10.420;2023-02-28T16:22:00;6.60;;;5.82;;
45296;SDS011;31040;51.622;10.420;2023-02-28T16:24:27;9.65;;;6.15;;
45296;SDS011;31040;51.622;10.420;2023-02-28T16:26:55;6.82;;;5.07;;
45296;SDS011;31040;51.622;10.420;2023-02-28T16:29:27;7.35;;;5.00;;
45296;SDS011;31040;51.622;10.420;2023-02-28T16:31:56;8.50;;;5.22;;
45296;SDS011;31040;51.622;10.420;2023-02-28T16:34:23;7.55;;;5.40;;
45296;SDS011;31040;51.622;10.420;2023-02-28T16:36:51;6.07;;;5.05;;
45296;SDS011;31040;51.622;10.420;2023-02-28T16:39:18;6.07;;;5.10;;
45296;SDS011;31040;51.622;10.420;2023-02-28T16:41:49;7.97;;;5.35;;
45296;SDS011;31040;51.622;10.420;2023-02-28T16:44:21;9.30;;;5.53;;
45296;SDS011;31040;51.622;10.420;2023-02-28T16:46:52;7.30;;;5.07;;
45296;SDS011;31040;51.622;10.420;2023-02-28T16:49:19;7.47;;;4.82;;
45296;SDS011;31040;51.622;10.420;2023-02-28T16:51:47;7.13;;;5.50;;
45296;SDS011;31040;51.622;10.420;2023-02-28T16:54:14;5.93;;;5.35;;
45296;SDS011;31040;51.622;10.420;2023-02-28T16:56:43;7.07;;;5.07;;
45296;SDS011;31040;51.622;10.420;2023-02-28T16:59:11;10.93;;;6.05;;
45296;SDS011;31040;51.622;10.420;2023-02-28T17:01:38;7.55;;;4.60;;
45296;SDS011;31040;51.622;10.420;2023-02-28T17:04:06;6.28;;;4.75;;
45296;SDS011;31040;51.622;10.420;2023-02-28T17:06:33;14.75;;;10.00;;
45296;SDS011;31040;51.622;10.420;2023-02-28T17:09:00;48.17;;;24.48;;
45296;SDS011;31040;51.622;10.420;2023-02-28T17:43:08;10.27;;;6.28;;
45296;SDS011;31040;51.622;10.420;2023-02-28T17:45:36;6.00;;;5.20;;
45296;SDS011;31040;51.622;10.420;2023-02-28T17:48:04;5.45;;;4.75;;
45296;SDS011;31040;51.622;10.420;2023-02-28T17:50:31;7.10;;;4.80;;
45296;SDS011;31040;51.622;10.420;2023-02-28T17:53:02;4.93;;;4.25;;
45296;SDS011;31040;51.622;10.420;2023-02-28T17:55:29;6.57;;;4.20;;
45296;SDS011;31040;51.622;10.420;2023-02-28T17:57:56;7.43;;;4.68;;
45296;SDS011;31040;51.622;10.420;2023-02-28T18:00:24;5.35;;;3.83;;
45296;SDS011;31040;51.622;10.420;2023-02-28T18:02:51;6.32;;;4.20;;
45296;SDS011;31040;51.622;10.420;2023-02-28T18:05:18;6.55;;;5.05;;
45296;SDS011;31040;51.622;10.420;2023-02-28T18:07:46;5.40;;;4.13;;
45296;SDS011;31040;51.622;10.420;2023-02-28T18:10:17;6.93;;;4.47;;
45296;SDS011;31040;51.622;10.420;2023-02-28T18:12:48;6.85;;;4.75;;
45296;SDS011;31040;51.622;10.420;2023-02-28T18:15:16;7.60;;;4.88;;
45296;SDS011;31040;51.622;10.420;2023-02-28T18:17:46;5.50;;;4.38;;
45296;SDS011;31040;51.622;10.420;2023-02-28T18:20:14;5.80;;;4.28;;
45296;SDS011;31040;51.622;10.420;2023-02-28T18:22:41;5.57;;;3.78;;
45296;SDS011;31040;51.622;10.420;2023-02-28T18:25:09;6.05;;;4.10;;
45296;SDS011;31040;51.622;10.420;2023-02-28T18:27:39;6.57;;;4.15;;